Terminal Aerodrome Forecast
Issued by NWS Milwaukee/Sullivan, WI

Home | Current Version | Previous Version | Text Only | Print | Product List | Glossary On
Versions: 1 2 3 4 5 6 7 8 9 10 11 12 13 14 15 16 17 18 19 20 21 22 23 24 25 26 27 28 29 30 31 32 33 34 35 36 37 38 39 40 41 42 43 44
000
FTUS43 KMKX 291731
TAFMSN
TAF
KMSN 291731Z 2918/3018 18013KT P6SM SCT020 BKN120
     FM300000 17010KT P6SM BKN090
     FM300300 18010KT 6SM -TSRA BKN080CB
     FM300900 20005KT 6SM SHRA OVC030
     FM301000 21005KT 2SM TSRA BR OVC008CB
     FM301400 24006KT 5SM -SHRA OVC012
     FM301700 24007KT P6SM BKN020=

USA.gov is the U.S. government's official web portal to all federal, state and local government web resources and services.